createdAt,value
2023-04-24T00:00:11.768Z,93.41
2023-04-24T00:00:23.932Z,93.30
2023-04-24T00:00:34.623Z,93.20
2023-04-24T00:00:45.435Z,93.20
2023-04-24T00:00:57.160Z,93.10
2023-04-24T00:01:09.605Z,93.00
2023-04-24T00:01:21.309Z,92.90
2023-04-24T00:01:34.294Z,93.00
2023-04-24T00:01:47.652Z,93.10
2023-04-24T00:02:00.174Z,93.00
2023-04-24T00:02:11.063Z,93.00
2023-04-24T00:02:21.989Z,93.00
2023-04-24T00:02:33.006Z,93.00
2023-04-24T00:02:44.908Z,93.00
2023-04-24T00:02:58.240Z,93.10
2023-04-24T00:03:09.479Z,93.00
2023-04-24T00:03:22.225Z,93.00
2023-04-24T00:03:34.257Z,93.00
2023-04-24T00:03:46.648Z,93.00
2023-04-24T00:03:57.543Z,92.96
2023-04-24T00:04:08.461Z,93.00
2023-04-24T00:04:19.513Z,93.00
2023-04-24T00:04:30.498Z,93.00
2023-04-24T00:04:41.561Z,93.00
2023-04-24T00:04:53.326Z,93.00
2023-04-24T00:05:05.994Z,93.10
2023-04-24T00:05:17.741Z,93.20
2023-04-24T00:05:29.440Z,93.20
2023-04-24T00:05:41.668Z,93.20
2023-04-24T00:05:53.402Z,93.10
2023-04-24T00:06:05.883Z,93.10
2023-04-24T00:06:18.295Z,93.10
2023-04-24T00:06:31.004Z,93.10
2023-04-24T00:06:42.704Z,93.00
2023-04-24T00:06:54.426Z,92.90
2023-04-24T00:07:05.930Z,92.90
2023-04-24T00:07:18.391Z,92.90
2023-04-24T00:07:29.065Z,92.90
2023-04-24T00:07:41.559Z,93.00
2023-04-24T00:07:52.265Z,93.00
2023-04-24T00:08:03.078Z,93.00
2023-04-24T00:08:13.826Z,93.00
2023-04-24T00:08:25.522Z,93.00
2023-04-24T00:08:38.220Z,93.00
2023-04-24T00:08:49.943Z,93.00
2023-04-24T00:09:00.625Z,93.00
2023-04-24T00:09:11.341Z,93.10
2023-04-24T00:09:22.100Z,93.10
2023-04-24T00:09:32.811Z,93.10
2023-04-24T00:09:43.814Z,93.10
2023-04-24T00:09:54.749Z,93.20
2023-04-24T00:10:05.427Z,93.30
2023-04-24T00:10:16.164Z,93.41
2023-04-24T00:10:28.385Z,93.41
2023-04-24T00:10:40.582Z,93.41
2023-04-24T00:10:52.260Z,93.30
2023-04-24T00:11:02.976Z,93.20
2023-04-24T00:11:13.701Z,93.20
2023-04-24T00:11:24.440Z,93.20
2023-04-24T00:11:37.624Z,93.20
2023-04-24T00:11:49.316Z,93.20
2023-04-24T00:12:01.472Z,93.20
2023-04-24T00:12:13.895Z,93.35
2023-04-24T00:12:26.077Z,93.45
2023-04-24T00:12:36.795Z,93.55
2023-04-24T00:12:48.512Z,93.55
2023-04-24T00:12:59.234Z,93.55
2023-04-24T00:13:09.964Z,93.55
2023-04-24T00:13:22.870Z,93.55
2023-04-24T00:13:34.608Z,93.45
2023-04-24T00:13:45.302Z,93.55
2023-04-24T00:13:56.035Z,93.55
2023-04-24T00:14:08.436Z,93.55
2023-04-24T00:14:19.143Z,93.55
2023-04-24T00:14:29.914Z,93.66
2023-04-24T00:14:41.598Z,93.76
2023-04-24T00:14:52.331Z,93.76
2023-04-24T00:15:03.129Z,93.76
2023-04-24T00:15:13.813Z,93.76
2023-04-24T00:15:24.531Z,93.86
2023-04-24T00:15:38.184Z,93.86
2023-04-24T00:15:48.920Z,93.86
2023-04-24T00:16:00.631Z,93.86
2023-04-24T00:16:11.325Z,93.86
2023-04-24T00:16:22.000Z,93.86
2023-04-24T00:16:32.733Z,93.76
2023-04-24T00:16:43.453Z,93.76
2023-04-24T00:16:55.950Z,93.66
2023-04-24T00:17:06.723Z,93.66
2023-04-24T00:17:18.451Z,93.70
2023-04-24T00:17:29.229Z,93.80
2023-04-24T00:17:39.934Z,93.90
2023-04-24T00:17:50.656Z,94.01
2023-04-24T00:18:01.371Z,94.01
2023-04-24T00:18:12.062Z,93.90
2023-04-24T00:18:22.790Z,93.90
2023-04-24T00:18:34.480Z,93.90
2023-04-24T00:18:45.277Z,94.11
2023-04-24T00:18:57.665Z,94.11
2023-04-24T00:19:08.370Z,94.21
2023-04-24T00:19:19.079Z,94.32
2023-04-24T00:19:29.780Z,94.32
2023-04-24T00:19:40.709Z,94.32
2023-04-24T00:19:51.496Z,94.42
2023-04-24T00:20:03.204Z,94.42
2023-04-24T00:20:13.953Z,94.32
2023-04-24T00:20:24.651Z,94.32
2023-04-24T00:20:35.423Z,94.21
2023-04-24T00:20:46.110Z,94.32
2023-04-24T00:20:57.763Z,94.42
2023-04-24T00:21:08.467Z,94.67
2023-04-24T00:21:19.160Z,94.67
2023-04-24T00:21:29.883Z,94.73
2023-04-24T00:21:40.558Z,94.77
2023-04-24T00:21:51.251Z,94.77
2023-04-24T00:22:01.951Z,94.87
2023-04-24T00:22:12.694Z,94.87
2023-04-24T00:22:23.441Z,94.87
2023-04-24T00:22:34.190Z,94.98
2023-04-24T00:22:47.857Z,94.98
2023-04-24T00:22:58.556Z,95.07
2023-04-24T00:23:09.257Z,95.07
2023-04-24T00:23:19.952Z,95.07
2023-04-24T00:23:30.718Z,94.98
2023-04-24T00:23:41.408Z,95.07
2023-04-24T00:23:52.094Z,95.07
2023-04-24T00:24:05.266Z,94.98
2023-04-24T00:24:17.654Z,94.87
2023-04-24T00:24:28.379Z,94.87
2023-04-24T00:24:39.084Z,94.98
2023-04-24T00:24:49.783Z,95.07
2023-04-24T00:25:02.200Z,95.07
2023-04-24T00:25:12.932Z,95.07
2023-04-24T00:25:25.394Z,95.18
2023-04-24T00:25:36.096Z,95.18
2023-04-24T00:25:47.756Z,95.18
2023-04-24T00:26:00.180Z,95.18
2023-04-24T00:26:10.896Z,95.07
2023-04-24T00:26:23.572Z,95.07
2023-04-24T00:26:34.276Z,95.18
2023-04-24T00:26:45.015Z,95.18
2023-04-24T00:26:57.226Z,95.28
2023-04-24T00:27:07.948Z,95.28
2023-04-24T00:27:18.639Z,95.39
2023-04-24T00:27:30.098Z,95.39
2023-04-24T00:27:40.836Z,95.39
2023-04-24T00:27:51.552Z,95.39
2023-04-24T00:28:02.295Z,95.39
2023-04-24T00:28:14.685Z,95.39
2023-04-24T00:28:25.398Z,95.39
2023-04-24T00:28:37.838Z,95.39
2023-04-24T00:28:48.512Z,95.49
2023-04-24T00:29:00.776Z,95.49
2023-04-24T00:29:11.548Z,95.49
2023-04-24T00:29:23.924Z,95.49
2023-04-24T00:29:36.822Z,95.64
2023-04-24T00:29:47.547Z,95.64
2023-04-24T00:29:59.697Z,95.64
2023-04-24T00:30:11.404Z,95.53
2023-04-24T00:30:22.096Z,95.43
2023-04-24T00:30:32.791Z,95.43
2023-04-24T00:30:43.513Z,95.43
2023-04-24T00:30:55.151Z,95.43
2023-04-24T00:31:05.870Z,95.43
2023-04-24T00:31:17.578Z,95.43
2023-04-24T00:31:29.253Z,95.32
2023-04-24T00:31:41.024Z,95.32
2023-04-24T00:31:52.746Z,95.32
2023-04-24T00:32:05.430Z,95.32
2023-04-24T00:32:18.857Z,95.23
2023-04-24T00:32:29.744Z,95.32
2023-04-24T00:32:40.478Z,95.43
2023-04-24T00:32:51.260Z,95.64
2023-04-24T00:33:04.294Z,95.74
2023-04-24T00:33:15.054Z,95.84
2023-04-24T00:33:25.800Z,95.94
2023-04-24T00:33:36.618Z,95.94
2023-04-24T00:33:47.310Z,96.04
2023-04-24T00:33:59.470Z,96.04
2023-04-24T00:34:10.158Z,96.04
2023-04-24T00:34:22.549Z,96.04
2023-04-24T00:34:34.487Z,96.04
2023-04-24T00:34:45.177Z,96.04
2023-04-24T00:34:55.883Z,96.04
2023-04-24T00:35:06.619Z,96.04
2023-04-24T00:35:17.316Z,96.15
2023-04-24T00:35:30.992Z,96.15
2023-04-24T00:35:42.649Z,96.25
2023-04-24T00:35:55.085Z,96.25
2023-04-24T00:36:05.757Z,96.25
2023-04-24T00:36:16.507Z,96.25
2023-04-24T00:36:27.240Z,96.25
2023-04-24T00:36:37.927Z,96.15
2023-04-24T00:36:50.868Z,96.04
2023-04-24T00:37:01.556Z,96.04
2023-04-24T00:37:12.280Z,95.94
2023-04-24T00:37:23.960Z,96.04
2023-04-24T00:37:36.391Z,96.04
2023-04-24T00:37:47.072Z,96.04
2023-04-24T00:37:57.796Z,96.04
2023-04-24T00:38:09.476Z,96.15
2023-04-24T00:38:21.199Z,96.15
2023-04-24T00:38:34.348Z,96.15
2023-04-24T00:38:45.057Z,96.15
2023-04-24T00:38:56.719Z,96.15
2023-04-24T00:39:07.462Z,96.25
2023-04-24T00:39:19.309Z,96.15
2023-04-24T00:39:31.698Z,96.15
2023-04-24T00:39:44.565Z,96.15
2023-04-24T00:39:55.485Z,96.15
2023-04-24T00:40:06.225Z,96.15
2023-04-24T00:40:16.955Z,96.15
2023-04-24T00:40:30.146Z,96.15
2023-04-24T00:40:40.850Z,96.04
2023-04-24T00:40:52.570Z,96.04
2023-04-24T00:41:03.254Z,96.04
2023-04-24T00:41:13.999Z,96.04
2023-04-24T00:41:24.696Z,96.04
2023-04-24T00:41:36.377Z,96.04
2023-04-24T00:41:48.079Z,95.94
2023-04-24T00:41:58.790Z,95.94
2023-04-24T00:42:09.559Z,95.94
2023-04-24T00:42:21.946Z,95.84
2023-04-24T00:42:32.647Z,95.84
2023-04-24T00:42:43.364Z,95.94
2023-04-24T00:42:54.074Z,95.84
2023-04-24T00:43:04.863Z,95.84
2023-04-24T00:43:16.991Z,95.84
2023-04-24T00:43:29.157Z,95.94
2023-04-24T00:43:39.909Z,95.94
2023-04-24T00:43:50.629Z,95.94
2023-04-24T00:44:02.750Z,95.84
2023-04-24T00:44:14.410Z,95.84
2023-04-24T00:44:25.123Z,95.94
2023-04-24T00:44:35.877Z,95.84
2023-04-24T00:44:48.286Z,95.84
2023-04-24T00:44:59.960Z,95.84
2023-04-24T00:45:12.156Z,95.84
2023-04-24T00:45:22.846Z,95.84
2023-04-24T00:45:33.583Z,95.84
2023-04-24T00:45:44.322Z,95.84
2023-04-24T00:45:55.116Z,95.84
2023-04-24T00:46:05.812Z,95.94
2023-04-24T00:46:16.646Z,96.04
2023-04-24T00:46:27.368Z,96.09
2023-04-24T00:46:38.203Z,96.09
2023-04-24T00:46:50.610Z,96.04
2023-04-24T00:47:03.086Z,96.09
2023-04-24T00:47:14.751Z,96.04
2023-04-24T00:47:25.492Z,96.09
2023-04-24T00:47:37.349Z,95.98
2023-04-24T00:47:48.073Z,95.98
2023-04-24T00:47:58.793Z,95.89
2023-04-24T00:48:09.567Z,95.89
2023-04-24T00:48:21.294Z,95.78
2023-04-24T00:48:31.984Z,95.78
2023-04-24T00:48:43.700Z,95.68
2023-04-24T00:48:55.381Z,95.68
2023-04-24T00:49:07.838Z,95.68
2023-04-24T00:49:19.483Z,95.78
2023-04-24T00:49:30.190Z,95.89
2023-04-24T00:49:42.533Z,95.98
2023-04-24T00:49:55.060Z,95.98
2023-04-24T00:50:06.743Z,95.98
2023-04-24T00:50:19.164Z,95.98
2023-04-24T00:50:30.890Z,95.98
2023-04-24T00:50:42.550Z,95.98
2023-04-24T00:50:54.226Z,95.89
2023-04-24T00:51:05.948Z,95.89
2023-04-24T00:51:16.681Z,95.89
2023-04-24T00:51:28.391Z,95.89
2023-04-24T00:51:40.754Z,95.78
2023-04-24T00:51:52.414Z,95.78
2023-04-24T00:52:03.150Z,95.98
2023-04-24T00:52:13.820Z,95.98
2023-04-24T00:52:25.529Z,95.98
2023-04-24T00:52:36.533Z,95.98
2023-04-24T00:52:48.773Z,95.98
2023-04-24T00:52:59.492Z,95.98
2023-04-24T00:53:10.276Z,96.09
2023-04-24T00:53:20.979Z,96.09
2023-04-24T00:53:31.666Z,96.09
2023-04-24T00:53:42.395Z,96.19
2023-04-24T00:53:54.382Z,96.30
2023-04-24T00:54:06.770Z,96.40
2023-04-24T00:54:19.193Z,96.40
2023-04-24T00:54:31.429Z,96.50
2023-04-24T00:54:43.634Z,96.40
2023-04-24T00:54:54.319Z,96.40
2023-04-24T00:55:07.564Z,96.40
2023-04-24T00:55:18.322Z,96.40
2023-04-24T00:55:29.986Z,96.30
2023-04-24T00:55:41.657Z,96.19
2023-04-24T00:55:52.351Z,96.19
2023-04-24T00:56:04.047Z,96.30
2023-04-24T00:56:15.743Z,96.40
2023-04-24T00:56:27.401Z,96.50
2023-04-24T00:56:39.088Z,96.50
2023-04-24T00:56:52.759Z,96.50
2023-04-24T00:57:05.142Z,96.50
2023-04-24T00:57:17.605Z,96.60
2023-04-24T00:57:29.256Z,96.60
2023-04-24T00:57:40.942Z,96.50
2023-04-24T00:57:51.658Z,96.60
2023-04-24T00:58:03.372Z,96.70
2023-04-24T00:58:15.064Z,96.70
2023-04-24T00:58:25.792Z,96.70
2023-04-24T00:58:37.589Z,96.60
2023-04-24T00:58:48.287Z,96.70
2023-04-24T00:59:00.698Z,96.60
2023-04-24T00:59:11.388Z,96.60
2023-04-24T00:59:22.109Z,96.60
2023-04-24T00:59:33.843Z,96.60
2023-04-24T00:59:44.739Z,96.65
2023-04-24T00:59:56.493Z,96.60
2023-04-24T01:00:10.186Z,96.55
2023-04-24T01:00:20.899Z,96.44
2023-04-24T01:00:33.047Z,96.44
2023-04-24T01:00:43.757Z,96.34
2023-04-24T01:00:54.477Z,96.44
2023-04-24T01:01:05.217Z,96.55
2023-04-24T01:01:16.906Z,96.55
2023-04-24T01:01:27.727Z,96.55
2023-04-24T01:01:38.502Z,96.55
2023-04-24T01:01:49.277Z,96.55
2023-04-24T01:02:00.026Z,96.55
2023-04-24T01:02:11.701Z,96.55
2023-04-24T01:02:22.471Z,96.55
2023-04-24T01:02:35.041Z,96.55
2023-04-24T01:02:45.836Z,96.55
2023-04-24T01:02:56.724Z,96.55
2023-04-24T01:03:08.764Z,96.65
2023-04-24T01:03:19.688Z,96.85
2023-04-24T01:03:32.326Z,96.85
2023-04-24T01:03:43.274Z,96.85
2023-04-24T01:03:54.209Z,96.95
2023-04-24T01:04:06.266Z,96.95
2023-04-24T01:04:19.080Z,96.85
2023-04-24T01:04:30.960Z,96.75
2023-04-24T01:04:41.771Z,96.75
2023-04-24T01:04:54.211Z,96.75
2023-04-24T01:05:05.892Z,96.75
2023-04-24T01:05:19.090Z,96.85
2023-04-24T01:05:30.782Z,96.95
2023-04-24T01:05:42.473Z,96.95
2023-04-24T01:05:53.183Z,96.95
2023-04-24T01:06:05.853Z,96.85
2023-04-24T01:06:16.590Z,96.85
2023-04-24T01:06:27.326Z,96.85
2023-04-24T01:06:38.006Z,96.85
2023-04-24T01:06:51.040Z,96.85
2023-04-24T01:07:04.506Z,96.85
2023-04-24T01:07:15.270Z,96.85
2023-04-24T01:07:27.419Z,96.95
2023-04-24T01:07:38.156Z,97.16
2023-04-24T01:07:48.891Z,97.27
2023-04-24T01:08:00.628Z,97.37
2023-04-24T01:08:12.314Z,97.52
2023-04-24T01:08:23.017Z,97.52
2023-04-24T01:08:33.730Z,97.52
2023-04-24T01:08:45.454Z,97.62
2023-04-24T01:08:57.159Z,97.72
2023-04-24T01:09:07.840Z,97.72
2023-04-24T01:09:19.515Z,97.72
2023-04-24T01:09:30.270Z,97.72
2023-04-24T01:09:42.949Z,97.62
2023-04-24T01:09:53.850Z,97.52
2023-04-24T01:10:05.549Z,97.52
2023-04-24T01:10:16.290Z,97.41
2023-04-24T01:10:28.952Z,97.31
2023-04-24T01:10:39.659Z,97.31
2023-04-24T01:10:50.359Z,97.31
2023-04-24T01:11:01.062Z,97.20
2023-04-24T01:11:14.229Z,97.20
2023-04-24T01:11:24.929Z,97.31
2023-04-24T01:11:36.634Z,97.41
2023-04-24T01:11:47.336Z,97.41
2023-04-24T01:11:58.062Z,97.41
2023-04-24T01:12:08.792Z,97.62
2023-04-24T01:12:20.505Z,97.82
2023-04-24T01:12:32.156Z,97.82
2023-04-24T01:12:42.910Z,97.72
2023-04-24T01:12:55.290Z,97.82
2023-04-24T01:13:05.988Z,97.82
2023-04-24T01:13:19.681Z,97.72
2023-04-24T01:13:31.906Z,97.72
2023-04-24T01:13:42.801Z,97.72
2023-04-24T01:13:54.542Z,97.72
2023-04-24T01:14:05.228Z,97.72
2023-04-24T01:14:16.893Z,97.72
2023-04-24T01:14:27.615Z,97.72
2023-04-24T01:14:40.018Z,97.62
2023-04-24T01:14:50.750Z,97.62
2023-04-24T01:15:02.440Z,97.62
2023-04-24T01:15:13.156Z,97.62
2023-04-24T01:15:23.852Z,97.62
2023-04-24T01:15:34.616Z,97.62
2023-04-24T01:15:47.112Z,97.72
2023-04-24T01:15:57.827Z,97.72
2023-04-24T01:16:08.554Z,97.72
2023-04-24T01:16:21.035Z,97.62
2023-04-24T01:16:32.758Z,97.62
2023-04-24T01:16:44.415Z,97.66
2023-04-24T01:16:55.100Z,97.66
2023-04-24T01:17:06.774Z,97.66
2023-04-24T01:17:17.504Z,97.66
2023-04-24T01:17:29.174Z,97.66
2023-04-24T01:17:40.909Z,97.56
2023-04-24T01:17:51.628Z,97.56
2023-04-24T01:18:03.361Z,97.66
2023-04-24T01:18:15.023Z,97.66
2023-04-24T01:18:25.711Z,97.66
2023-04-24T01:18:36.413Z,97.66
2023-04-24T01:18:47.188Z,97.66
2023-04-24T01:18:58.821Z,97.77
2023-04-24T01:19:10.488Z,97.77
2023-04-24T01:19:21.231Z,97.87
2023-04-24T01:19:32.932Z,97.87
2023-04-24T01:19:43.834Z,97.87
2023-04-24T01:19:54.776Z,97.87
2023-04-24T01:20:05.454Z,97.77
2023-04-24T01:20:18.636Z,97.87
2023-04-24T01:20:30.299Z,97.97
2023-04-24T01:20:41.016Z,98.07
2023-04-24T01:20:51.705Z,98.07
2023-04-24T01:21:02.395Z,98.18
2023-04-24T01:21:13.140Z,98.07
2023-04-24T01:21:23.836Z,98.07
2023-04-24T01:21:34.541Z,98.07
2023-04-24T01:21:46.966Z,98.07
2023-04-24T01:21:57.669Z,98.07
2023-04-24T01:22:08.402Z,98.07
2023-04-24T01:22:19.065Z,98.07
2023-04-24T01:22:29.836Z,97.97
2023-04-24T01:22:40.540Z,97.97
2023-04-24T01:22:51.248Z,97.97
2023-04-24T01:23:01.938Z,98.07
2023-04-24T01:23:12.681Z,98.18
2023-04-24T01:23:23.344Z,98.18
2023-04-24T01:23:34.998Z,98.28
2023-04-24T01:23:47.699Z,98.28
2023-04-24T01:23:59.370Z,98.28
2023-04-24T01:24:10.137Z,98.18
2023-04-24T01:24:22.821Z,98.28
2023-04-24T01:24:34.493Z,98.18
2023-04-24T01:24:46.940Z,98.07
2023-04-24T01:24:58.633Z,97.97
2023-04-24T01:25:10.104Z,97.97
2023-04-24T01:25:20.797Z,98.07
2023-04-24T01:25:32.706Z,98.07
2023-04-24T01:25:43.457Z,98.18
2023-04-24T01:25:54.133Z,98.18
2023-04-24T01:26:04.825Z,98.07
2023-04-24T01:26:17.722Z,98.07
2023-04-24T01:26:28.436Z,98.07
2023-04-24T01:26:40.089Z,97.97
2023-04-24T01:26:52.512Z,97.87
2023-04-24T01:27:04.169Z,97.87
2023-04-24T01:27:14.876Z,97.77
2023-04-24T01:27:25.611Z,97.77
2023-04-24T01:27:37.255Z,97.77
2023-04-24T01:27:47.981Z,97.77
2023-04-24T01:27:58.667Z,97.77
2023-04-24T01:28:09.371Z,97.77
2023-04-24T01:28:20.118Z,97.77
2023-04-24T01:28:30.847Z,97.77
2023-04-24T01:28:43.533Z,97.77
2023-04-24T01:28:55.909Z,97.77
2023-04-24T01:29:06.601Z,97.77
2023-04-24T01:29:17.314Z,97.77
2023-04-24T01:29:29.104Z,97.66
2023-04-24T01:29:42.475Z,97.66
2023-04-24T01:29:55.060Z,97.56
2023-04-24T01:30:05.771Z,97.45
2023-04-24T01:30:16.483Z,97.45
2023-04-24T01:30:29.640Z,97.36
2023-04-24T01:30:42.068Z,97.36
2023-04-24T01:30:52.810Z,97.25
2023-04-24T01:31:04.509Z,97.25
2023-04-24T01:31:15.210Z,97.25
2023-04-24T01:31:25.910Z,97.25
2023-04-24T01:31:36.621Z,97.25
2023-04-24T01:31:49.841Z,97.15
2023-04-24T01:32:02.052Z,97.15
2023-04-24T01:32:12.795Z,97.05
2023-04-24T01:32:25.220Z,96.94
2023-04-24T01:32:35.953Z,96.84
2023-04-24T01:32:47.622Z,96.73
2023-04-24T01:32:58.364Z,96.73
2023-04-24T01:33:09.051Z,96.73
2023-04-24T01:33:19.746Z,96.64
2023-04-24T01:33:31.478Z,96.64
2023-04-24T01:33:42.178Z,96.64
2023-04-24T01:33:54.582Z,96.64
2023-04-24T01:34:08.305Z,96.64
2023-04-24T01:34:21.467Z,96.64
2023-04-24T01:34:32.154Z,96.64
2023-04-24T01:34:44.597Z,96.64
2023-04-24T01:34:57.079Z,96.64
2023-04-24T01:35:09.530Z,96.64
2023-04-24T01:35:21.912Z,96.64
2023-04-24T01:35:32.619Z,96.64
2023-04-24T01:35:44.279Z,96.64
2023-04-24T01:35:55.028Z,96.53
2023-04-24T01:36:05.703Z,96.53
2023-04-24T01:36:18.104Z,96.53
2023-04-24T01:36:28.812Z,96.53
2023-04-24T01:36:40.576Z,96.53
2023-04-24T01:36:52.720Z,96.53
2023-04-24T01:37:04.895Z,96.53
2023-04-24T01:37:15.596Z,96.53
2023-04-24T01:37:28.780Z,96.53
2023-04-24T01:37:40.438Z,96.53
2023-04-24T01:37:52.615Z,96.53
2023-04-24T01:38:04.289Z,96.53
2023-04-24T01:38:16.693Z,96.53
2023-04-24T01:38:27.384Z,96.64
2023-04-24T01:38:38.102Z,96.64
2023-04-24T01:38:48.838Z,96.64
2023-04-24T01:39:00.510Z,96.73
2023-04-24T01:39:12.204Z,96.64
2023-04-24T01:39:22.898Z,96.73
2023-04-24T01:39:35.576Z,96.73
2023-04-24T01:39:46.286Z,96.73
2023-04-24T01:39:57.008Z,96.73
2023-04-24T01:40:07.688Z,96.73
2023-04-24T01:40:18.433Z,96.84
2023-04-24T01:40:29.174Z,96.84
2023-04-24T01:40:40.870Z,96.84
2023-04-24T01:40:51.575Z,96.94
2023-04-24T01:41:03.992Z,97.05
2023-04-24T01:41:14.748Z,97.25
2023-04-24T01:41:25.420Z,97.36
2023-04-24T01:41:36.132Z,97.36
2023-04-24T01:41:46.852Z,97.45
2023-04-24T01:41:58.534Z,97.45
2023-04-24T01:42:09.287Z,97.45
2023-04-24T01:42:19.970Z,97.56
2023-04-24T01:42:30.694Z,97.56
2023-04-24T01:42:42.351Z,97.56
2023-04-24T01:42:53.047Z,97.56
2023-04-24T01:43:03.861Z,97.66
2023-04-24T01:43:15.500Z,97.66
2023-04-24T01:43:26.183Z,97.66
2023-04-24T01:43:36.868Z,97.66
2023-04-24T01:43:47.583Z,97.66
2023-04-24T01:43:59.226Z,97.66
2023-04-24T01:44:09.981Z,97.66
2023-04-24T01:44:21.648Z,97.66
2023-04-24T01:44:34.358Z,97.56
2023-04-24T01:44:45.070Z,97.45
2023-04-24T01:44:55.788Z,97.36
2023-04-24T01:45:06.521Z,97.25
2023-04-24T01:45:18.654Z,97.15
2023-04-24T01:45:29.459Z,96.94
2023-04-24T01:45:41.911Z,96.84
2023-04-24T01:45:53.611Z,96.73
2023-04-24T01:46:04.483Z,96.64
2023-04-24T01:46:17.241Z,96.64
2023-04-24T01:46:27.913Z,96.64
2023-04-24T01:46:38.615Z,96.64
2023-04-24T01:46:49.327Z,96.53
2023-04-24T01:47:02.528Z,96.53
2023-04-24T01:47:14.254Z,96.43
2023-04-24T01:47:25.032Z,96.43
2023-04-24T01:47:36.750Z,96.33
2023-04-24T01:47:47.489Z,96.43
2023-04-24T01:48:00.204Z,96.43
2023-04-24T01:48:12.659Z,96.43
2023-04-24T01:48:23.365Z,96.53
2023-04-24T01:48:34.083Z,96.53
2023-04-24T01:48:44.773Z,96.64
2023-04-24T01:48:55.499Z,96.64
2023-04-24T01:49:06.194Z,96.73
2023-04-24T01:49:18.614Z,96.73
2023-04-24T01:49:29.341Z,96.73
2023-04-24T01:49:41.464Z,96.73
2023-04-24T01:49:52.421Z,96.84
2023-04-24T01:50:03.367Z,96.84
2023-04-24T01:50:15.802Z,96.94
2023-04-24T01:50:28.271Z,96.94
2023-04-24T01:50:38.964Z,96.94
2023-04-24T01:50:51.347Z,96.94
2023-04-24T01:51:02.068Z,96.94
2023-04-24T01:51:14.232Z,96.94
2023-04-24T01:51:26.675Z,97.05
2023-04-24T01:51:38.319Z,97.05
2023-04-24T01:51:49.025Z,97.05
2023-04-24T01:51:59.779Z,97.15
2023-04-24T01:52:10.438Z,97.15
2023-04-24T01:52:21.201Z,97.15
2023-04-24T01:52:33.554Z,97.15
2023-04-24T01:52:44.267Z,97.15
2023-04-24T01:52:56.492Z,97.25
2023-04-24T01:53:07.213Z,97.25
2023-04-24T01:53:17.916Z,97.25
2023-04-24T01:53:30.325Z,97.25
2023-04-24T01:53:42.029Z,97.36
2023-04-24T01:53:53.683Z,97.36
2023-04-24T01:54:05.363Z,97.45
2023-04-24T01:54:16.100Z,97.36
2023-04-24T01:54:28.769Z,97.25
2023-04-24T01:54:39.472Z,97.25
2023-04-24T01:54:51.211Z,97.15
2023-04-24T01:55:01.953Z,97.05
2023-04-24T01:55:12.654Z,96.90
2023-04-24T01:55:25.298Z,96.84
2023-04-24T01:55:37.720Z,96.64
2023-04-24T01:55:50.430Z,96.53
2023-04-24T01:56:02.928Z,96.33
2023-04-24T01:56:15.116Z,96.22
2023-04-24T01:56:25.803Z,95.97
2023-04-24T01:56:37.942Z,95.77
2023-04-24T01:56:48.648Z,95.46
2023-04-24T01:56:59.345Z,95.25
2023-04-24T01:57:10.070Z,95.25
2023-04-24T01:57:20.771Z,95.25
2023-04-24T01:57:31.482Z,95.25
2023-04-24T01:57:43.180Z,95.36
2023-04-24T01:57:53.941Z,95.25
2023-04-24T01:58:04.721Z,95.15
2023-04-24T01:58:16.425Z,95.05
2023-04-24T01:58:27.139Z,94.95
2023-04-24T01:58:37.876Z,94.84
2023-04-24T01:58:48.563Z,94.74
2023-04-24T01:59:01.014Z,94.64
2023-04-24T01:59:13.428Z,94.43
2023-04-24T01:59:25.858Z,94.43
2023-04-24T01:59:38.264Z,94.43
2023-04-24T01:59:49.966Z,94.54
2023-04-24T02:00:01.717Z,94.64
2023-04-24T02:00:12.424Z,94.64
2023-04-24T02:00:24.126Z,94.74
2023-04-24T02:00:34.903Z,94.84
2023-04-24T02:00:45.661Z,94.84
2023-04-24T02:00:56.355Z,94.95
2023-04-24T02:01:08.772Z,94.95
2023-04-24T02:01:19.554Z,94.95
2023-04-24T02:01:31.244Z,95.05
2023-04-24T02:01:42.916Z,95.15
2023-04-24T02:01:53.638Z,95.25
2023-04-24T02:02:06.344Z,95.15
2023-04-24T02:02:17.132Z,95.15
2023-04-24T02:02:27.926Z,95.25
2023-04-24T02:02:40.451Z,95.36
2023-04-24T02:02:52.865Z,95.36
2023-04-24T02:03:05.165Z,95.46
2023-04-24T02:03:16.133Z,95.56
2023-04-24T02:03:27.302Z,95.56
2023-04-24T02:03:38.239Z,95.67
2023-04-24T02:03:48.991Z,95.77
2023-04-24T02:03:59.904Z,95.77
2023-04-24T02:04:10.853Z,95.77
2023-04-24T02:04:21.648Z,95.77
2023-04-24T02:04:34.836Z,95.77
2023-04-24T02:04:47.555Z,95.87
2023-04-24T02:04:58.278Z,95.87
2023-04-24T02:05:11.002Z,95.87
2023-04-24T02:05:21.707Z,95.87
2023-04-24T02:05:32.486Z,95.87
2023-04-24T02:05:44.122Z,95.87
2023-04-24T02:05:55.786Z,95.87
2023-04-24T02:06:07.492Z,95.87
2023-04-24T02:06:19.162Z,95.87
2023-04-24T02:06:31.628Z,95.87
2023-04-24T02:06:44.693Z,95.87
2023-04-24T02:06:57.114Z,95.77
2023-04-24T02:07:07.818Z,95.72
2023-04-24T02:07:20.213Z,95.77
2023-04-24T02:07:31.906Z,95.67
2023-04-24T02:07:42.630Z,95.77
2023-04-24T02:07:55.571Z,95.72
2023-04-24T02:08:06.286Z,95.72
2023-04-24T02:08:16.986Z,95.77
2023-04-24T02:08:27.838Z,95.83
2023-04-24T02:08:38.549Z,95.87
2023-04-24T02:08:49.282Z,95.93
2023-04-24T02:09:00.921Z,96.03
2023-04-24T02:09:11.615Z,96.03
2023-04-24T02:09:23.333Z,96.03
2023-04-24T02:09:34.076Z,96.03
2023-04-24T02:09:45.772Z,96.03
2023-04-24T02:09:58.167Z,96.03
2023-04-24T02:10:08.910Z,96.14
2023-04-24T02:10:19.638Z,96.14
2023-04-24T02:10:30.315Z,96.23
2023-04-24T02:10:41.014Z,96.23
2023-04-24T02:10:51.707Z,96.34
2023-04-24T02:11:04.654Z,96.34
2023-04-24T02:11:17.045Z,96.44
2023-04-24T02:11:27.764Z,96.44
2023-04-24T02:11:38.469Z,96.55
2023-04-24T02:11:50.925Z,96.44
2023-04-24T02:12:01.598Z,96.44
2023-04-24T02:12:12.346Z,96.44
2023-04-24T02:12:23.038Z,96.44
2023-04-24T02:12:33.725Z,96.44
2023-04-24T02:12:45.938Z,96.44
2023-04-24T02:12:56.628Z,96.44
2023-04-24T02:13:08.800Z,96.44
2023-04-24T02:13:19.560Z,96.44
2023-04-24T02:13:30.247Z,96.44
2023-04-24T02:13:40.986Z,96.44
2023-04-24T02:13:52.651Z,96.55
2023-04-24T02:14:04.329Z,96.55
2023-04-24T02:14:15.979Z,96.55
2023-04-24T02:14:26.688Z,96.44
2023-04-24T02:14:38.376Z,96.44
2023-04-24T02:14:50.804Z,96.34
2023-04-24T02:15:02.512Z,96.23
2023-04-24T02:15:13.254Z,96.23
2023-04-24T02:15:24.136Z,96.14
2023-04-24T02:15:36.289Z,96.14
2023-04-24T02:15:47.009Z,96.03
2023-04-24T02:15:59.597Z,96.03
2023-04-24T02:16:11.353Z,95.93
2023-04-24T02:16:22.083Z,95.93
2023-04-24T02:16:35.276Z,95.93
2023-04-24T02:16:47.161Z,95.93
2023-04-24T02:16:59.919Z,95.83
2023-04-24T02:17:11.770Z,95.83
2023-04-24T02:17:22.501Z,95.72
2023-04-24T02:17:34.228Z,95.72
2023-04-24T02:17:44.957Z,95.62
2023-04-24T02:17:55.757Z,95.42
2023-04-24T02:18:08.932Z,95.10
2023-04-24T02:18:19.634Z,94.80
2023-04-24T02:18:32.538Z,94.59
2023-04-24T02:18:43.224Z,94.49
2023-04-24T02:18:56.396Z,94.59
2023-04-24T02:19:08.100Z,94.80
2023-04-24T02:19:20.579Z,95.01
2023-04-24T02:19:31.289Z,95.10
2023-04-24T02:19:44.051Z,95.10
2023-04-24T02:19:54.838Z,95.21
2023-04-24T02:20:08.043Z,95.21
2023-04-24T02:20:20.412Z,95.31
2023-04-24T02:20:32.822Z,95.31
2023-04-24T02:20:43.659Z,95.42
2023-04-24T02:20:56.057Z,95.42
2023-04-24T02:21:07.763Z,95.42
2023-04-24T02:21:19.465Z,95.42
2023-04-24T02:21:31.053Z,95.31
2023-04-24T02:21:41.780Z,95.21
2023-04-24T02:21:52.489Z,95.10
2023-04-24T02:22:04.151Z,95.10
2023-04-24T02:22:17.391Z,95.01
2023-04-24T02:22:28.075Z,95.01
2023-04-24T02:22:41.262Z,94.70
2023-04-24T02:22:52.029Z,94.39
2023-04-24T02:23:04.955Z,94.08
2023-04-24T02:23:16.620Z,93.67
2023-04-24T02:23:27.344Z,93.57
2023-04-24T02:23:39.774Z,93.67
2023-04-24T02:23:50.459Z,93.77
2023-04-24T02:24:01.246Z,93.87
2023-04-24T02:24:11.988Z,93.98
2023-04-24T02:24:25.152Z,94.08
2023-04-24T02:24:35.833Z,94.08
2023-04-24T02:24:46.531Z,94.08
2023-04-24T02:24:57.275Z,94.08
2023-04-24T02:25:09.624Z,94.08
2023-04-24T02:25:20.333Z,94.08
2023-04-24T02:25:33.521Z,94.18
2023-04-24T02:25:45.255Z,94.18
2023-04-24T02:25:58.498Z,94.29
2023-04-24T02:26:09.256Z,94.29
2023-04-24T02:26:21.175Z,94.18
2023-04-24T02:26:31.872Z,94.29
2023-04-24T02:26:45.084Z,94.18
2023-04-24T02:26:55.816Z,93.98
2023-04-24T02:27:07.507Z,93.77
2023-04-24T02:27:20.940Z,93.57